sensor_id;sensor_type;location;lat;lon;timestamp;P1;durP1;ratioP1;P2;durP2;ratioP2
14125;SDS011;7141;49.484;11.242;2023-03-03T00:00:17;19.97;;;11.43;;
14125;SDS011;7141;49.484;11.242;2023-03-03T00:02:43;25.87;;;12.63;;
14125;SDS011;7141;49.484;11.242;2023-03-03T00:05:09;21.47;;;11.00;;
14125;SDS011;7141;49.484;11.242;2023-03-03T00:07:39;24.60;;;11.07;;
14125;SDS011;7141;49.484;11.242;2023-03-03T00:10:07;22.53;;;10.80;;
14125;SDS011;7141;49.484;11.242;2023-03-03T00:12:33;27.03;;;10.90;;
14125;SDS011;7141;49.484;11.242;2023-03-03T00:15:00;21.67;;;11.27;;
14125;SDS011;7141;49.484;11.242;2023-03-03T00:17:27;18.80;;;10.33;;
14125;SDS011;7141;49.484;11.242;2023-03-03T00:19:53;25.87;;;10.87;;
14125;SDS011;7141;49.484;11.242;2023-03-03T00:22:37;24.07;;;10.53;;
14125;SDS011;7141;49.484;11.242;2023-03-03T00:27:45;24.73;;;10.47;;
14125;SDS011;7141;49.484;11.242;2023-03-03T00:30:24;19.83;;;10.37;;
14125;SDS011;7141;49.484;11.242;2023-03-03T00:32:51;20.07;;;10.70;;
14125;SDS011;7141;49.484;11.242;2023-03-03T00:35:25;26.60;;;10.60;;
14125;SDS011;7141;49.484;11.242;2023-03-03T00:37:53;19.77;;;9.97;;
14125;SDS011;7141;49.484;11.242;2023-03-03T00:42:56;21.70;;;10.97;;
14125;SDS011;7141;49.484;11.242;2023-03-03T00:47:52;21.97;;;12.43;;
14125;SDS011;7141;49.484;11.242;2023-03-03T00:53:09;26.47;;;11.77;;
14125;SDS011;7141;49.484;11.242;2023-03-03T00:55:36;19.57;;;10.40;;
14125;SDS011;7141;49.484;11.242;2023-03-03T00:58:02;23.50;;;11.30;;
14125;SDS011;7141;49.484;11.242;2023-03-03T01:00:28;22.30;;;11.53;;
14125;SDS011;7141;49.484;11.242;2023-03-03T01:02:54;21.27;;;11.27;;
14125;SDS011;7141;49.484;11.242;2023-03-03T01:05:20;21.30;;;10.83;;
14125;SDS011;7141;49.484;11.242;2023-03-03T01:07:46;20.07;;;11.03;;
14125;SDS011;7141;49.484;11.242;2023-03-03T01:10:12;20.27;;;9.90;;
14125;SDS011;7141;49.484;11.242;2023-03-03T01:12:38;22.30;;;10.63;;
14125;SDS011;7141;49.484;11.242;2023-03-03T01:15:05;20.63;;;10.30;;
14125;SDS011;7141;49.484;11.242;2023-03-03T01:17:32;19.97;;;11.07;;
14125;SDS011;7141;49.484;11.242;2023-03-03T01:19:58;22.93;;;10.40;;
14125;SDS011;7141;49.484;11.242;2023-03-03T01:22:24;23.03;;;11.17;;
14125;SDS011;7141;49.484;11.242;2023-03-03T01:24:50;21.93;;;11.27;;
14125;SDS011;7141;49.484;11.242;2023-03-03T01:27:16;24.07;;;11.33;;
14125;SDS011;7141;49.484;11.242;2023-03-03T01:29:42;21.30;;;10.70;;
14125;SDS011;7141;49.484;11.242;2023-03-03T01:32:08;19.80;;;10.80;;
14125;SDS011;7141;49.484;11.242;2023-03-03T01:34:34;28.33;;;12.30;;
14125;SDS011;7141;49.484;11.242;2023-03-03T01:37:00;22.57;;;11.47;;
14125;SDS011;7141;49.484;11.242;2023-03-03T01:39:26;22.50;;;11.40;;
14125;SDS011;7141;49.484;11.242;2023-03-03T01:41:52;20.93;;;11.00;;
14125;SDS011;7141;49.484;11.242;2023-03-03T01:44:18;22.13;;;10.20;;
14125;SDS011;7141;49.484;11.242;2023-03-03T01:49:12;20.00;;;10.70;;
14125;SDS011;7141;49.484;11.242;2023-03-03T01:51:42;22.53;;;10.77;;
14125;SDS011;7141;49.484;11.242;2023-03-03T01:54:11;23.33;;;11.43;;
14125;SDS011;7141;49.484;11.242;2023-03-03T01:56:39;19.97;;;10.60;;
14125;SDS011;7141;49.484;11.242;2023-03-03T01:59:08;21.37;;;11.17;;
14125;SDS011;7141;49.484;11.242;2023-03-03T02:01:36;21.13;;;11.50;;
14125;SDS011;7141;49.484;11.242;2023-03-03T02:04:02;22.07;;;10.53;;
14125;SDS011;7141;49.484;11.242;2023-03-03T02:06:29;21.20;;;10.97;;
14125;SDS011;7141;49.484;11.242;2023-03-03T02:11:24;19.33;;;11.20;;
14125;SDS011;7141;49.484;11.242;2023-03-03T02:13:51;24.50;;;12.20;;
14125;SDS011;7141;49.484;11.242;2023-03-03T02:16:17;21.60;;;11.83;;
14125;SDS011;7141;49.484;11.242;2023-03-03T02:18:43;28.20;;;11.93;;
14125;SDS011;7141;49.484;11.242;2023-03-03T02:23:37;22.67;;;11.80;;
14125;SDS011;7141;49.484;11.242;2023-03-03T02:28:32;23.33;;;12.20;;
14125;SDS011;7141;49.484;11.242;2023-03-03T02:30:58;23.97;;;12.37;;
14125;SDS011;7141;49.484;11.242;2023-03-03T02:33:25;22.77;;;11.87;;
14125;SDS011;7141;49.484;11.242;2023-03-03T02:35:51;22.07;;;11.20;;
14125;SDS011;7141;49.484;11.242;2023-03-03T02:38:20;25.90;;;11.63;;
14125;SDS011;7141;49.484;11.242;2023-03-03T02:40:52;23.87;;;11.30;;
14125;SDS011;7141;49.484;11.242;2023-03-03T02:43:22;19.63;;;10.50;;
14125;SDS011;7141;49.484;11.242;2023-03-03T02:45:48;23.50;;;10.80;;
14125;SDS011;7141;49.484;11.242;2023-03-03T02:48:14;23.77;;;10.83;;
14125;SDS011;7141;49.484;11.242;2023-03-03T02:50:40;21.07;;;10.67;;
14125;SDS011;7141;49.484;11.242;2023-03-03T02:53:06;25.27;;;11.03;;
14125;SDS011;7141;49.484;11.242;2023-03-03T02:55:32;22.50;;;11.37;;
14125;SDS011;7141;49.484;11.242;2023-03-03T02:57:58;22.63;;;12.07;;
14125;SDS011;7141;49.484;11.242;2023-03-03T03:00:24;22.30;;;11.80;;
14125;SDS011;7141;49.484;11.242;2023-03-03T03:02:50;21.37;;;10.93;;
14125;SDS011;7141;49.484;11.242;2023-03-03T03:05:16;20.47;;;10.70;;
14125;SDS011;7141;49.484;11.242;2023-03-03T03:07:42;21.10;;;10.80;;
14125;SDS011;7141;49.484;11.242;2023-03-03T03:10:08;23.47;;;12.33;;
14125;SDS011;7141;49.484;11.242;2023-03-03T03:12:35;27.27;;;11.83;;
14125;SDS011;7141;49.484;11.242;2023-03-03T03:15:01;24.87;;;11.60;;
14125;SDS011;7141;49.484;11.242;2023-03-03T03:17:27;22.97;;;11.33;;
14125;SDS011;7141;49.484;11.242;2023-03-03T03:19:53;25.07;;;12.70;;
14125;SDS011;7141;49.484;11.242;2023-03-03T03:22:19;30.13;;;16.43;;
14125;SDS011;7141;49.484;11.242;2023-03-03T03:24:45;32.83;;;16.43;;
14125;SDS011;7141;49.484;11.242;2023-03-03T03:27:11;31.57;;;16.20;;
14125;SDS011;7141;49.484;11.242;2023-03-03T03:29:37;27.30;;;15.70;;
14125;SDS011;7141;49.484;11.242;2023-03-03T03:32:03;24.17;;;13.93;;
14125;SDS011;7141;49.484;11.242;2023-03-03T03:34:29;27.90;;;14.40;;
14125;SDS011;7141;49.484;11.242;2023-03-03T03:36:55;29.43;;;14.77;;
14125;SDS011;7141;49.484;11.242;2023-03-03T03:39:21;24.80;;;13.93;;
14125;SDS011;7141;49.484;11.242;2023-03-03T03:41:47;27.53;;;14.70;;
14125;SDS011;7141;49.484;11.242;2023-03-03T03:44:13;24.63;;;14.23;;
14125;SDS011;7141;49.484;11.242;2023-03-03T03:46:39;25.07;;;13.97;;
14125;SDS011;7141;49.484;11.242;2023-03-03T03:49:05;24.70;;;14.40;;
14125;SDS011;7141;49.484;11.242;2023-03-03T03:51:31;23.03;;;13.67;;
14125;SDS011;7141;49.484;11.242;2023-03-03T03:53:59;24.97;;;13.00;;
14125;SDS011;7141;49.484;11.242;2023-03-03T03:56:25;27.80;;;13.03;;
14125;SDS011;7141;49.484;11.242;2023-03-03T03:58:51;27.90;;;14.20;;
14125;SDS011;7141;49.484;11.242;2023-03-03T04:01:17;28.10;;;13.50;;
14125;SDS011;7141;49.484;11.242;2023-03-03T04:03:43;29.63;;;13.37;;
14125;SDS011;7141;49.484;11.242;2023-03-03T04:06:09;24.40;;;12.07;;
14125;SDS011;7141;49.484;11.242;2023-03-03T04:08:35;24.27;;;12.90;;
14125;SDS011;7141;49.484;11.242;2023-03-03T04:11:01;23.93;;;12.57;;
14125;SDS011;7141;49.484;11.242;2023-03-03T04:13:27;26.97;;;12.27;;
14125;SDS011;7141;49.484;11.242;2023-03-03T04:15:55;21.90;;;11.83;;
14125;SDS011;7141;49.484;11.242;2023-03-03T04:18:21;22.63;;;11.47;;
14125;SDS011;7141;49.484;11.242;2023-03-03T04:20:48;21.73;;;11.40;;
14125;SDS011;7141;49.484;11.242;2023-03-03T04:23:16;21.77;;;11.87;;
14125;SDS011;7141;49.484;11.242;2023-03-03T04:25:44;21.30;;;11.57;;
14125;SDS011;7141;49.484;11.242;2023-03-03T04:28:10;22.07;;;11.27;;
14125;SDS011;7141;49.484;11.242;2023-03-03T04:30:36;24.90;;;12.67;;
14125;SDS011;7141;49.484;11.242;2023-03-03T04:33:02;24.33;;;12.40;;
14125;SDS011;7141;49.484;11.242;2023-03-03T04:35:28;24.70;;;11.47;;
14125;SDS011;7141;49.484;11.242;2023-03-03T04:37:54;23.60;;;12.03;;
14125;SDS011;7141;49.484;11.242;2023-03-03T04:40:20;25.57;;;13.07;;
14125;SDS011;7141;49.484;11.242;2023-03-03T04:42:46;27.07;;;14.03;;
14125;SDS011;7141;49.484;11.242;2023-03-03T04:45:12;25.73;;;13.27;;
14125;SDS011;7141;49.484;11.242;2023-03-03T04:47:38;26.13;;;13.07;;
14125;SDS011;7141;49.484;11.242;2023-03-03T04:50:04;25.43;;;13.13;;
14125;SDS011;7141;49.484;11.242;2023-03-03T04:52:31;23.53;;;12.13;;
14125;SDS011;7141;49.484;11.242;2023-03-03T04:54:57;26.77;;;12.17;;
14125;SDS011;7141;49.484;11.242;2023-03-03T04:57:23;27.83;;;13.87;;
14125;SDS011;7141;49.484;11.242;2023-03-03T04:59:49;25.93;;;13.57;;
14125;SDS011;7141;49.484;11.242;2023-03-03T05:02:15;22.27;;;12.53;;
14125;SDS011;7141;49.484;11.242;2023-03-03T05:04:41;26.77;;;14.13;;
14125;SDS011;7141;49.484;11.242;2023-03-03T05:07:07;32.50;;;14.73;;
14125;SDS011;7141;49.484;11.242;2023-03-03T05:09:33;34.37;;;17.20;;
14125;SDS011;7141;49.484;11.242;2023-03-03T05:11:59;34.87;;;16.70;;
14125;SDS011;7141;49.484;11.242;2023-03-03T05:14:25;39.43;;;16.73;;
14125;SDS011;7141;49.484;11.242;2023-03-03T05:16:52;30.73;;;15.47;;
14125;SDS011;7141;49.484;11.242;2023-03-03T05:19:18;34.90;;;13.90;;
14125;SDS011;7141;49.484;11.242;2023-03-03T05:21:44;31.53;;;15.37;;
14125;SDS011;7141;49.484;11.242;2023-03-03T05:24:10;32.37;;;16.80;;
14125;SDS011;7141;49.484;11.242;2023-03-03T05:26:37;30.03;;;14.97;;
14125;SDS011;7141;49.484;11.242;2023-03-03T05:29:03;30.30;;;15.03;;
14125;SDS011;7141;49.484;11.242;2023-03-03T05:31:29;27.87;;;13.83;;
14125;SDS011;7141;49.484;11.242;2023-03-03T05:33:55;33.10;;;15.50;;
14125;SDS011;7141;49.484;11.242;2023-03-03T05:36:21;32.87;;;14.73;;
14125;SDS011;7141;49.484;11.242;2023-03-03T05:38:47;30.90;;;14.67;;
14125;SDS011;7141;49.484;11.242;2023-03-03T05:41:13;31.10;;;15.27;;
14125;SDS011;7141;49.484;11.242;2023-03-03T05:43:39;27.93;;;14.20;;
14125;SDS011;7141;49.484;11.242;2023-03-03T05:46:05;27.53;;;13.67;;
14125;SDS011;7141;49.484;11.242;2023-03-03T05:48:31;31.50;;;14.47;;
14125;SDS011;7141;49.484;11.242;2023-03-03T05:50:57;28.47;;;15.00;;
14125;SDS011;7141;49.484;11.242;2023-03-03T05:53:24;26.33;;;14.10;;
14125;SDS011;7141;49.484;11.242;2023-03-03T05:55:50;26.60;;;14.50;;
14125;SDS011;7141;49.484;11.242;2023-03-03T05:58:16;28.57;;;14.23;;
14125;SDS011;7141;49.484;11.242;2023-03-03T06:00:42;28.50;;;14.40;;
14125;SDS011;7141;49.484;11.242;2023-03-03T06:03:08;29.50;;;14.70;;
14125;SDS011;7141;49.484;11.242;2023-03-03T06:05:34;30.57;;;14.37;;
14125;SDS011;7141;49.484;11.242;2023-03-03T06:08:00;40.53;;;20.90;;
14125;SDS011;7141;49.484;11.242;2023-03-03T06:10:26;36.63;;;18.53;;
14125;SDS011;7141;49.484;11.242;2023-03-03T06:12:52;40.93;;;21.00;;
14125;SDS011;7141;49.484;11.242;2023-03-03T06:15:19;39.37;;;19.07;;
14125;SDS011;7141;49.484;11.242;2023-03-03T06:17:45;33.40;;;17.43;;
14125;SDS011;7141;49.484;11.242;2023-03-03T06:20:11;34.07;;;17.70;;
14125;SDS011;7141;49.484;11.242;2023-03-03T06:22:37;33.67;;;15.60;;
14125;SDS011;7141;49.484;11.242;2023-03-03T06:25:03;33.37;;;16.90;;
14125;SDS011;7141;49.484;11.242;2023-03-03T06:27:29;31.53;;;15.00;;
14125;SDS011;7141;49.484;11.242;2023-03-03T06:29:55;30.47;;;15.97;;
14125;SDS011;7141;49.484;11.242;2023-03-03T06:32:21;28.97;;;14.73;;
14125;SDS011;7141;49.484;11.242;2023-03-03T06:34:47;40.80;;;20.37;;
14125;SDS011;7141;49.484;11.242;2023-03-03T06:37:13;37.77;;;19.77;;
14125;SDS011;7141;49.484;11.242;2023-03-03T06:39:39;41.43;;;20.43;;
14125;SDS011;7141;49.484;11.242;2023-03-03T06:42:05;30.63;;;15.53;;
14125;SDS011;7141;49.484;11.242;2023-03-03T06:44:33;31.87;;;14.93;;
14125;SDS011;7141;49.484;11.242;2023-03-03T06:46:59;28.90;;;14.43;;
14125;SDS011;7141;49.484;11.242;2023-03-03T06:49:25;31.33;;;15.60;;
14125;SDS011;7141;49.484;11.242;2023-03-03T06:51:51;32.87;;;17.07;;
14125;SDS011;7141;49.484;11.242;2023-03-03T06:54:18;31.83;;;16.73;;
14125;SDS011;7141;49.484;11.242;2023-03-03T06:56:45;34.73;;;17.40;;
14125;SDS011;7141;49.484;11.242;2023-03-03T06:59:15;35.00;;;17.00;;
14125;SDS011;7141;49.484;11.242;2023-03-03T07:01:43;32.07;;;17.50;;
14125;SDS011;7141;49.484;11.242;2023-03-03T07:04:10;30.50;;;17.43;;
14125;SDS011;7141;49.484;11.242;2023-03-03T07:06:38;33.60;;;17.90;;
14125;SDS011;7141;49.484;11.242;2023-03-03T07:09:05;30.67;;;16.23;;
14125;SDS011;7141;49.484;11.242;2023-03-03T07:11:34;31.10;;;15.70;;
14125;SDS011;7141;49.484;11.242;2023-03-03T07:14:04;30.93;;;16.03;;
14125;SDS011;7141;49.484;11.242;2023-03-03T07:16:38;29.57;;;15.20;;
14125;SDS011;7141;49.484;11.242;2023-03-03T07:19:08;27.83;;;15.20;;
14125;SDS011;7141;49.484;11.242;2023-03-03T07:21:39;26.97;;;15.50;;
14125;SDS011;7141;49.484;11.242;2023-03-03T07:26:41;24.97;;;15.47;;
14125;SDS011;7141;49.484;11.242;2023-03-03T07:29:26;33.33;;;16.40;;
14125;SDS011;7141;49.484;11.242;2023-03-03T07:31:53;33.60;;;17.13;;
14125;SDS011;7141;49.484;11.242;2023-03-03T07:34:25;36.17;;;18.20;;
14125;SDS011;7141;49.484;11.242;2023-03-03T07:36:53;32.23;;;16.90;;
14125;SDS011;7141;49.484;11.242;2023-03-03T07:41:57;34.40;;;16.07;;
14125;SDS011;7141;49.484;11.242;2023-03-03T07:44:28;28.13;;;15.43;;
14125;SDS011;7141;49.484;11.242;2023-03-03T07:46:57;37.90;;;18.60;;
14125;SDS011;7141;49.484;11.242;2023-03-03T07:49:34;34.73;;;18.30;;
14125;SDS011;7141;49.484;11.242;2023-03-03T07:52:01;28.97;;;15.57;;
14125;SDS011;7141;49.484;11.242;2023-03-03T07:54:42;30.73;;;16.30;;
14125;SDS011;7141;49.484;11.242;2023-03-03T07:59:36;33.70;;;16.87;;
14125;SDS011;7141;49.484;11.242;2023-03-03T08:02:02;30.27;;;17.57;;
14125;SDS011;7141;49.484;11.242;2023-03-03T08:04:40;35.40;;;17.40;;
14125;SDS011;7141;49.484;11.242;2023-03-03T08:07:13;34.97;;;17.47;;
14125;SDS011;7141;49.484;11.242;2023-03-03T08:14:42;33.83;;;16.87;;
14125;SDS011;7141;49.484;11.242;2023-03-03T08:17:21;30.30;;;16.73;;
14125;SDS011;7141;49.484;11.242;2023-03-03T08:19:48;37.90;;;18.33;;
14125;SDS011;7141;49.484;11.242;2023-03-03T08:22:17;33.77;;;16.17;;
14125;SDS011;7141;49.484;11.242;2023-03-03T08:24:43;34.17;;;17.60;;
14125;SDS011;7141;49.484;11.242;2023-03-03T08:27:09;31.20;;;18.00;;
14125;SDS011;7141;49.484;11.242;2023-03-03T08:29:35;34.77;;;17.67;;
14125;SDS011;7141;49.484;11.242;2023-03-03T08:32:01;33.07;;;17.07;;
14125;SDS011;7141;49.484;11.242;2023-03-03T08:34:27;33.40;;;16.87;;
14125;SDS011;7141;49.484;11.242;2023-03-03T08:36:53;37.70;;;19.40;;
14125;SDS011;7141;49.484;11.242;2023-03-03T08:39:22;33.77;;;16.67;;
14125;SDS011;7141;49.484;11.242;2023-03-03T08:41:48;33.80;;;17.17;;
14125;SDS011;7141;49.484;11.242;2023-03-03T08:44:14;36.07;;;16.90;;
14125;SDS011;7141;49.484;11.242;2023-03-03T08:46:39;35.13;;;18.17;;
14125;SDS011;7141;49.484;11.242;2023-03-03T08:49:05;35.33;;;17.90;;
14125;SDS011;7141;49.484;11.242;2023-03-03T08:51:31;33.13;;;17.20;;
14125;SDS011;7141;49.484;11.242;2023-03-03T08:53:59;39.80;;;18.13;;
14125;SDS011;7141;49.484;11.242;2023-03-03T08:56:24;32.07;;;16.40;;
14125;SDS011;7141;49.484;11.242;2023-03-03T08:58:50;36.17;;;18.40;;
14125;SDS011;7141;49.484;11.242;2023-03-03T09:01:16;30.20;;;15.97;;
14125;SDS011;7141;49.484;11.242;2023-03-03T09:03:43;35.43;;;17.20;;
14125;SDS011;7141;49.484;11.242;2023-03-03T09:06:09;38.17;;;18.07;;
14125;SDS011;7141;49.484;11.242;2023-03-03T09:08:35;29.77;;;16.30;;
14125;SDS011;7141;49.484;11.242;2023-03-03T09:11:01;33.93;;;17.00;;
14125;SDS011;7141;49.484;11.242;2023-03-03T09:13:27;34.63;;;17.47;;
14125;SDS011;7141;49.484;11.242;2023-03-03T09:15:54;31.57;;;16.73;;
14125;SDS011;7141;49.484;11.242;2023-03-03T09:18:39;33.90;;;17.37;;
14125;SDS011;7141;49.484;11.242;2023-03-03T09:21:22;32.90;;;15.80;;
14125;SDS011;7141;49.484;11.242;2023-03-03T09:23:49;31.93;;;16.63;;
14125;SDS011;7141;49.484;11.242;2023-03-03T09:26:25;32.30;;;15.93;;
14125;SDS011;7141;49.484;11.242;2023-03-03T09:29:38;36.13;;;17.03;;
14125;SDS011;7141;49.484;11.242;2023-03-03T09:31:55;31.03;;;16.30;;
14125;SDS011;7141;49.484;11.242;2023-03-03T09:36:50;31.47;;;17.37;;
14125;SDS011;7141;49.484;11.242;2023-03-03T09:41:56;30.97;;;17.50;;
14125;SDS011;7141;49.484;11.242;2023-03-03T09:44:47;29.23;;;15.33;;
14125;SDS011;7141;49.484;11.242;2023-03-03T09:50:09;30.77;;;16.30;;
14125;SDS011;7141;49.484;11.242;2023-03-03T09:55:33;28.67;;;15.63;;
14125;SDS011;7141;49.484;11.242;2023-03-03T09:58:04;27.80;;;15.40;;
14125;SDS011;7141;49.484;11.242;2023-03-03T10:05:36;26.90;;;15.83;;
14125;SDS011;7141;49.484;11.242;2023-03-03T10:18:23;30.47;;;15.57;;
14125;SDS011;7141;49.484;11.242;2023-03-03T10:26:11;30.17;;;16.07;;
14125;SDS011;7141;49.484;11.242;2023-03-03T10:33:40;28.90;;;14.93;;
14125;SDS011;7141;49.484;11.242;2023-03-03T10:36:12;27.87;;;14.30;;
14125;SDS011;7141;49.484;11.242;2023-03-03T10:38:44;27.03;;;14.90;;
14125;SDS011;7141;49.484;11.242;2023-03-03T10:44:15;24.07;;;14.73;;
14125;SDS011;7141;49.484;11.242;2023-03-03T10:49:43;27.30;;;15.13;;
14125;SDS011;7141;49.484;11.242;2023-03-03T11:07:25;26.77;;;14.27;;
14125;SDS011;7141;49.484;11.242;2023-03-03T11:23:20;23.43;;;13.63;;
14125;SDS011;7141;49.484;11.242;2023-03-03T11:37:07;22.57;;;12.77;;
14125;SDS011;7141;49.484;11.242;2023-03-03T11:39:26;24.13;;;14.27;;
14125;SDS011;7141;49.484;11.242;2023-03-03T11:42:01;23.70;;;13.33;;
14125;SDS011;7141;49.484;11.242;2023-03-03T11:46:57;25.63;;;14.43;;
14125;SDS011;7141;49.484;11.242;2023-03-03T11:56:46;23.47;;;14.23;;
14125;SDS011;7141;49.484;11.242;2023-03-03T12:01:45;32.43;;;13.07;;
14125;SDS011;7141;49.484;11.242;2023-03-03T12:04:13;22.27;;;13.07;;
14125;SDS011;7141;49.484;11.242;2023-03-03T12:11:48;22.63;;;12.57;;
14125;SDS011;7141;49.484;11.242;2023-03-03T12:14:53;23.43;;;13.10;;
14125;SDS011;7141;49.484;11.242;2023-03-03T12:17:22;23.30;;;13.67;;
14125;SDS011;7141;49.484;11.242;2023-03-03T12:19:55;23.87;;;13.77;;
14125;SDS011;7141;49.484;11.242;2023-03-03T12:22:35;22.63;;;13.30;;
14125;SDS011;7141;49.484;11.242;2023-03-03T12:30:37;23.70;;;13.40;;
14125;SDS011;7141;49.484;11.242;2023-03-03T12:35:42;22.47;;;13.67;;
14125;SDS011;7141;49.484;11.242;2023-03-03T12:38:25;23.50;;;13.00;;
14125;SDS011;7141;49.484;11.242;2023-03-03T12:41:06;25.63;;;12.57;;
14125;SDS011;7141;49.484;11.242;2023-03-03T12:56:08;21.63;;;13.50;;
14125;SDS011;7141;49.484;11.242;2023-03-03T13:01:29;24.70;;;12.80;;
14125;SDS011;7141;49.484;11.242;2023-03-03T13:06:31;22.03;;;12.73;;
14125;SDS011;7141;49.484;11.242;2023-03-03T13:09:18;23.03;;;12.77;;
14125;SDS011;7141;49.484;11.242;2023-03-03T13:14:36;22.13;;;13.17;;
14125;SDS011;7141;49.484;11.242;2023-03-03T13:17:20;20.10;;;12.07;;
14125;SDS011;7141;49.484;11.242;2023-03-03T13:25:02;25.13;;;12.23;;
14125;SDS011;7141;49.484;11.242;2023-03-03T13:27:31;19.53;;;12.07;;
14125;SDS011;7141;49.484;11.242;2023-03-03T13:30:01;18.33;;;11.47;;
14125;SDS011;7141;49.484;11.242;2023-03-03T13:32:39;20.33;;;11.57;;
14125;SDS011;7141;49.484;11.242;2023-03-03T13:35:24;18.03;;;11.57;;
14125;SDS011;7141;49.484;11.242;2023-03-03T13:37:54;22.53;;;12.40;;
14125;SDS011;7141;49.484;11.242;2023-03-03T13:40:22;17.67;;;11.43;;
14125;SDS011;7141;49.484;11.242;2023-03-03T13:47:44;19.50;;;11.13;;
14125;SDS011;7141;49.484;11.242;2023-03-03T13:50:22;20.27;;;11.43;;
14125;SDS011;7141;49.484;11.242;2023-03-03T13:55:25;18.13;;;10.37;;
14125;SDS011;7141;49.484;11.242;2023-03-03T14:05:55;20.90;;;11.20;;
14125;SDS011;7141;49.484;11.242;2023-03-03T14:08:37;18.23;;;10.83;;
14125;SDS011;7141;49.484;11.242;2023-03-03T14:13:36;17.17;;;10.37;;
14125;SDS011;7141;49.484;11.242;2023-03-03T14:16:13;17.50;;;11.17;;
14125;SDS011;7141;49.484;11.242;2023-03-03T14:21:15;18.77;;;10.77;;
14125;SDS011;7141;49.484;11.242;2023-03-03T14:23:55;15.57;;;10.40;;
14125;SDS011;7141;49.484;11.242;2023-03-03T14:26:23;21.33;;;10.83;;
14125;SDS011;7141;49.484;11.242;2023-03-03T14:28:49;16.90;;;10.87;;
14125;SDS011;7141;49.484;11.242;2023-03-03T14:33:45;22.00;;;10.10;;
14125;SDS011;7141;49.484;11.242;2023-03-03T14:36:11;21.17;;;10.97;;
14125;SDS011;7141;49.484;11.242;2023-03-03T14:38:42;18.50;;;11.03;;
14125;SDS011;7141;49.484;11.242;2023-03-03T14:41:15;21.00;;;12.17;;
14125;SDS011;7141;49.484;11.242;2023-03-03T14:43:43;17.00;;;10.20;;
14125;SDS011;7141;49.484;11.242;2023-03-03T14:48:51;19.30;;;10.93;;
14125;SDS011;7141;49.484;11.242;2023-03-03T14:51:25;19.77;;;11.23;;
14125;SDS011;7141;49.484;11.242;2023-03-03T14:53:53;16.07;;;10.77;;
14125;SDS011;7141;49.484;11.242;2023-03-03T14:58:49;13.97;;;9.10;;
14125;SDS011;7141;49.484;11.242;2023-03-03T15:01:20;15.80;;;9.83;;
14125;SDS011;7141;49.484;11.242;2023-03-03T15:03:47;13.43;;;9.10;;
14125;SDS011;7141;49.484;11.242;2023-03-03T15:06:27;14.67;;;9.63;;
14125;SDS011;7141;49.484;11.242;2023-03-03T15:08:53;16.90;;;9.40;;
14125;SDS011;7141;49.484;11.242;2023-03-03T15:13:45;15.17;;;8.53;;
14125;SDS011;7141;49.484;11.242;2023-03-03T15:18:52;16.43;;;8.70;;
14125;SDS011;7141;49.484;11.242;2023-03-03T15:21:21;14.47;;;8.37;;
14125;SDS011;7141;49.484;11.242;2023-03-03T15:24:05;12.63;;;8.30;;
14125;SDS011;7141;49.484;11.242;2023-03-03T15:39:35;13.90;;;7.90;;
14125;SDS011;7141;49.484;11.242;2023-03-03T15:42:10;13.70;;;8.43;;
14125;SDS011;7141;49.484;11.242;2023-03-03T15:47:31;19.17;;;8.33;;
14125;SDS011;7141;49.484;11.242;2023-03-03T15:50:17;16.30;;;9.07;;
14125;SDS011;7141;49.484;11.242;2023-03-03T15:52:55;14.77;;;8.73;;
14125;SDS011;7141;49.484;11.242;2023-03-03T16:03:29;20.40;;;9.57;;
14125;SDS011;7141;49.484;11.242;2023-03-03T16:06:06;15.23;;;8.70;;
14125;SDS011;7141;49.484;11.242;2023-03-03T16:11:20;18.87;;;10.17;;
14125;SDS011;7141;49.484;11.242;2023-03-03T16:19:02;15.50;;;9.37;;
14125;SDS011;7141;49.484;11.242;2023-03-03T16:24:24;14.40;;;9.20;;
14125;SDS011;7141;49.484;11.242;2023-03-03T16:42:23;15.97;;;10.00;;
14125;SDS011;7141;49.484;11.242;2023-03-03T16:44:57;17.63;;;9.87;;
14125;SDS011;7141;49.484;11.242;2023-03-03T16:50:14;18.90;;;9.27;;
14125;SDS011;7141;49.484;11.242;2023-03-03T16:55:31;18.40;;;9.03;;
14125;SDS011;7141;49.484;11.242;2023-03-03T17:01:00;14.70;;;7.93;;
14125;SDS011;7141;49.484;11.242;2023-03-03T17:06:20;18.10;;;8.87;;
14125;SDS011;7141;49.484;11.242;2023-03-03T17:11:35;16.47;;;9.10;;
14125;SDS011;7141;49.484;11.242;2023-03-03T17:25:08;14.33;;;8.10;;
14125;SDS011;7141;49.484;11.242;2023-03-03T17:30:13;12.40;;;7.77;;
14125;SDS011;7141;49.484;11.242;2023-03-03T17:38:24;13.97;;;7.43;;
14125;SDS011;7141;49.484;11.242;2023-03-03T17:41:05;21.10;;;7.63;;
14125;SDS011;7141;49.484;11.242;2023-03-03T17:46:03;14.40;;;7.57;;
14125;SDS011;7141;49.484;11.242;2023-03-03T17:56:21;18.20;;;8.50;;
14125;SDS011;7141;49.484;11.242;2023-03-03T18:24:58;16.67;;;10.10;;
14125;SDS011;7141;49.484;11.242;2023-03-03T18:27:32;22.17;;;11.90;;
14125;SDS011;7141;49.484;11.242;2023-03-03T18:32:47;24.20;;;12.17;;
14125;SDS011;7141;49.484;11.242;2023-03-03T18:35:33;24.00;;;13.70;;
14125;SDS011;7141;49.484;11.242;2023-03-03T18:41:21;20.40;;;12.00;;
14125;SDS011;7141;49.484;11.242;2023-03-03T18:46:09;30.03;;;15.27;;
14125;SDS011;7141;49.484;11.242;2023-03-03T18:48:49;28.67;;;14.90;;
14125;SDS011;7141;49.484;11.242;2023-03-03T18:54:23;28.67;;;14.47;;
14125;SDS011;7141;49.484;11.242;2023-03-03T19:02:18;25.30;;;14.17;;
14125;SDS011;7141;49.484;11.242;2023-03-03T19:05:06;29.57;;;14.33;;
14125;SDS011;7141;49.484;11.242;2023-03-03T19:10:49;31.43;;;15.40;;
14125;SDS011;7141;49.484;11.242;2023-03-03T19:12:56;27.60;;;15.30;;
14125;SDS011;7141;49.484;11.242;2023-03-03T19:17:56;50.00;;;19.80;;
14125;SDS011;7141;49.484;11.242;2023-03-03T19:20:23;33.83;;;16.90;;
14125;SDS011;7141;49.484;11.242;2023-03-03T19:22:51;38.77;;;17.57;;
14125;SDS011;7141;49.484;11.242;2023-03-03T19:25:22;31.27;;;15.43;;
14125;SDS011;7141;49.484;11.242;2023-03-03T19:28:04;25.30;;;13.97;;
14125;SDS011;7141;49.484;11.242;2023-03-03T19:33:16;53.23;;;21.83;;
14125;SDS011;7141;49.484;11.242;2023-03-03T19:48:30;45.50;;;22.57;;
14125;SDS011;7141;49.484;11.242;2023-03-03T19:51:11;42.03;;;20.77;;
14125;SDS011;7141;49.484;11.242;2023-03-03T19:53:42;37.03;;;17.10;;
14125;SDS011;7141;49.484;11.242;2023-03-03T19:56:19;34.27;;;15.07;;
14125;SDS011;7141;49.484;11.242;2023-03-03T20:04:32;24.90;;;13.73;;
14125;SDS011;7141;49.484;11.242;2023-03-03T20:07:18;26.50;;;13.47;;
14125;SDS011;7141;49.484;11.242;2023-03-03T20:09:54;20.53;;;11.13;;
14125;SDS011;7141;49.484;11.242;2023-03-03T20:17:26;25.43;;;12.63;;
14125;SDS011;7141;49.484;11.242;2023-03-03T20:22:48;21.87;;;12.23;;
14125;SDS011;7141;49.484;11.242;2023-03-03T20:25:23;18.87;;;11.10;;
14125;SDS011;7141;49.484;11.242;2023-03-03T20:33:19;20.17;;;10.70;;
14125;SDS011;7141;49.484;11.242;2023-03-03T20:56:29;22.83;;;13.60;;
14125;SDS011;7141;49.484;11.242;2023-03-03T21:01:26;29.80;;;15.40;;
14125;SDS011;7141;49.484;11.242;2023-03-03T21:03:54;24.07;;;12.00;;
14125;SDS011;7141;49.484;11.242;2023-03-03T21:06:40;22.37;;;12.07;;
14125;SDS011;7141;49.484;11.242;2023-03-03T21:09:06;22.73;;;12.17;;
14125;SDS011;7141;49.484;11.242;2023-03-03T21:13:59;21.90;;;11.80;;
14125;SDS011;7141;49.484;11.242;2023-03-03T21:16:36;19.57;;;11.63;;